createdAt,value
2022-12-10T00:01:47.850Z,64.24
2022-12-10T00:04:49.733Z,64.54
2022-12-10T00:07:51.388Z,64.32
2022-12-10T00:10:52.926Z,64.63
2022-12-10T00:13:55.094Z,64.47
2022-12-10T00:16:56.610Z,64.72
2022-12-10T00:19:58.121Z,64.55
2022-12-10T00:22:59.649Z,64.63
2022-12-10T00:26:09.695Z,64.69
2022-12-10T00:29:13.171Z,64.51
2022-12-10T00:32:14.696Z,64.59
2022-12-10T00:35:16.315Z,64.49
2022-12-10T00:38:17.903Z,64.74
2022-12-10T00:41:19.909Z,64.62
2022-12-10T00:44:21.735Z,64.35
2022-12-10T00:47:23.263Z,64.36
2022-12-10T00:50:24.838Z,64.59
2022-12-10T00:53:28.855Z,64.43
2022-12-10T00:56:33.341Z,64.76
2022-12-10T00:59:34.987Z,64.59
2022-12-10T01:02:36.518Z,64.55
2022-12-10T01:05:38.065Z,64.62
2022-12-10T01:08:41.352Z,64.30
2022-12-10T01:11:44.794Z,64.58
2022-12-10T01:14:46.326Z,64.84
2022-12-10T01:17:47.860Z,64.61
2022-12-10T01:20:49.370Z,64.73
2022-12-10T01:23:52.479Z,64.85
2022-12-10T01:26:56.188Z,64.43
2022-12-10T01:29:57.787Z,64.71
2022-12-10T01:32:59.354Z,64.72
2022-12-10T01:36:13.706Z,64.56
2022-12-10T01:39:17.347Z,64.50
2022-12-10T01:42:18.892Z,64.57
2022-12-10T01:45:20.716Z,64.63
2022-12-10T01:48:22.414Z,64.46
2022-12-10T01:51:26.435Z,64.40
2022-12-10T01:54:35.484Z,64.52
2022-12-10T01:57:37.023Z,64.67
2022-12-10T02:00:56.768Z,64.38
2022-12-10T02:04:14.791Z,64.79
2022-12-10T02:07:25.437Z,64.79
2022-12-10T02:11:07.910Z,64.61
2022-12-10T02:14:12.425Z,64.75
2022-12-10T02:17:32.444Z,64.39
2022-12-10T02:20:40.526Z,64.54
2022-12-10T02:23:50.375Z,64.70
2022-12-10T02:27:19.649Z,64.55
2022-12-10T02:30:21.394Z,64.59
2022-12-10T02:33:25.752Z,64.50
2022-12-10T02:36:32.446Z,64.74
2022-12-10T02:39:44.752Z,64.63
2022-12-10T02:42:49.468Z,64.35
2022-12-10T02:45:51.997Z,64.55
2022-12-10T02:48:54.171Z,64.37
2022-12-10T02:51:55.704Z,64.42
2022-12-10T02:54:57.212Z,64.46
2022-12-10T02:58:30.808Z,64.64
2022-12-10T03:01:51.258Z,64.38
2022-12-10T03:05:19.104Z,64.37
2022-12-10T03:08:35.552Z,64.68
2022-12-10T03:11:40.362Z,64.61
2022-12-10T03:14:43.697Z,64.48
2022-12-10T03:17:46.996Z,64.71
2022-12-10T03:20:51.280Z,64.75
2022-12-10T03:23:52.798Z,64.56
2022-12-10T03:26:54.972Z,64.49
2022-12-10T03:29:59.731Z,64.45
2022-12-10T03:33:02.103Z,64.69
2022-12-10T03:36:07.657Z,64.58
2022-12-10T03:39:09.569Z,64.61
2022-12-10T03:42:11.307Z,64.48
2022-12-10T03:45:12.929Z,64.39
2022-12-10T03:48:14.471Z,64.36
2022-12-10T03:51:16.125Z,64.52
2022-12-10T03:54:17.684Z,64.57
2022-12-10T03:57:19.387Z,64.73
2022-12-10T04:00:21.143Z,64.32
2022-12-10T04:03:22.663Z,64.49
2022-12-10T04:06:24.224Z,64.48
2022-12-10T04:09:25.922Z,64.49
2022-12-10T04:12:27.475Z,64.60
2022-12-10T04:16:01.404Z,64.55
2022-12-10T04:19:06.034Z,64.64
2022-12-10T04:22:25.910Z,64.62
2022-12-10T04:25:46.104Z,64.69
2022-12-10T04:28:47.631Z,64.64
2022-12-10T04:31:49.425Z,64.64
2022-12-10T04:34:50.988Z,64.49
2022-12-10T04:42:14.969Z,64.73
2022-12-10T04:45:16.604Z,64.66
2022-12-10T04:48:18.145Z,64.60
2022-12-10T04:51:19.647Z,64.77
2022-12-10T04:54:21.240Z,64.62
2022-12-10T04:57:22.868Z,64.39
2022-12-10T05:00:24.426Z,64.53
2022-12-10T05:03:25.943Z,64.44
2022-12-10T05:06:28.134Z,64.58
2022-12-10T05:09:29.723Z,64.51
2022-12-10T05:12:31.279Z,64.38
2022-12-10T05:15:32.927Z,64.37
2022-12-10T05:18:34.998Z,64.51
2022-12-10T05:21:55.600Z,64.32
2022-12-10T05:24:57.139Z,64.56
2022-12-10T05:27:58.683Z,64.51
2022-12-10T05:31:01.289Z,64.50
2022-12-10T05:34:03.491Z,64.39
2022-12-10T05:37:05.583Z,64.39
2022-12-10T05:40:08.226Z,64.36
2022-12-10T05:43:10.169Z,64.28
2022-12-10T05:46:15.097Z,64.19
2022-12-10T05:49:16.688Z,64.45
2022-12-10T05:52:18.187Z,64.35
2022-12-10T05:55:19.955Z,64.35
2022-12-10T05:58:21.478Z,64.30
2022-12-10T06:01:26.388Z,64.35
2022-12-10T06:04:28.241Z,64.41
2022-12-10T06:07:30.919Z,64.34
2022-12-10T06:10:34.791Z,64.54
2022-12-10T06:13:37.416Z,64.49
2022-12-10T06:16:40.674Z,64.27
2022-12-10T06:19:42.164Z,64.12
2022-12-10T06:22:43.737Z,64.10
2022-12-10T06:25:45.246Z,64.06
2022-12-10T06:28:47.649Z,64.08
2022-12-10T06:31:49.193Z,64.03
2022-12-10T06:34:50.762Z,63.84
2022-12-10T06:37:52.697Z,63.68
2022-12-10T06:40:54.464Z,63.73
2022-12-10T06:43:59.482Z,63.93
2022-12-10T06:47:01.112Z,63.67
2022-12-10T06:50:02.995Z,63.64
2022-12-10T06:53:04.831Z,63.57
2022-12-10T06:56:07.895Z,63.52
2022-12-10T06:59:09.430Z,63.71
2022-12-10T07:02:11.288Z,63.50
2022-12-10T07:05:13.030Z,63.44
2022-12-10T07:08:14.584Z,63.52
2022-12-10T07:11:19.254Z,63.69
2022-12-10T07:14:20.808Z,63.74
2022-12-10T07:17:22.379Z,63.47
2022-12-10T07:20:23.912Z,63.50
2022-12-10T07:23:25.518Z,63.46
2022-12-10T07:26:29.771Z,63.21
2022-12-10T07:29:31.344Z,63.56
2022-12-10T07:32:32.939Z,63.58
2022-12-10T07:35:34.479Z,63.73
2022-12-10T07:38:36.103Z,63.68
2022-12-10T07:41:38.302Z,63.67
2022-12-10T07:44:39.851Z,63.65
2022-12-10T07:47:41.412Z,64.04
2022-12-10T07:50:42.927Z,63.72
2022-12-10T07:53:44.991Z,64.10
2022-12-10T07:56:46.911Z,64.22
2022-12-10T07:59:48.483Z,64.06
2022-12-10T08:02:50.014Z,63.92
2022-12-10T08:06:05.647Z,64.08
2022-12-10T08:09:07.792Z,63.97
2022-12-10T08:12:09.354Z,64.04
2022-12-10T08:15:11.047Z,63.96
2022-12-10T08:18:12.593Z,64.10
2022-12-10T08:21:22.803Z,63.96
2022-12-10T08:24:24.310Z,64.46
2022-12-10T08:27:26.021Z,65.54
2022-12-10T08:30:27.522Z,64.50
2022-12-10T08:33:29.187Z,64.19
2022-12-10T08:36:31.750Z,64.19
2022-12-10T08:39:34.471Z,64.04
2022-12-10T08:42:36.011Z,63.95
2022-12-10T08:45:37.570Z,64.06
2022-12-10T08:48:39.556Z,64.08
2022-12-10T08:51:41.104Z,64.16
2022-12-10T08:54:42.647Z,64.32
2022-12-10T08:57:44.412Z,64.05
2022-12-10T09:00:46.315Z,64.12
2022-12-10T09:03:48.197Z,64.23
2022-12-10T09:06:49.809Z,64.16
2022-12-10T09:09:51.343Z,64.59
2022-12-10T09:12:52.920Z,64.61
2022-12-10T09:15:54.492Z,64.39
2022-12-10T09:18:56.302Z,64.36
2022-12-10T09:21:57.884Z,64.08
2022-12-10T09:24:59.398Z,64.28
2022-12-10T09:28:00.933Z,64.29
2022-12-10T09:31:03.714Z,64.08
2022-12-10T09:34:05.519Z,64.08
2022-12-10T09:37:07.080Z,63.93
2022-12-10T09:40:15.342Z,63.96
2022-12-10T09:43:37.892Z,64.05
2022-12-10T09:46:52.624Z,63.89
2022-12-10T09:50:00.234Z,63.99
2022-12-10T09:53:03.758Z,64.01
2022-12-10T09:56:06.347Z,63.90
2022-12-10T09:59:19.974Z,64.01
2022-12-10T10:02:29.560Z,63.93
2022-12-10T10:05:34.598Z,63.93
2022-12-10T10:08:46.556Z,63.91
2022-12-10T10:11:48.523Z,63.92
2022-12-10T10:14:50.193Z,63.90
2022-12-10T10:17:55.607Z,63.98
2022-12-10T10:20:58.536Z,64.04
2022-12-10T10:24:00.863Z,63.76
2022-12-10T10:27:16.074Z,63.87
2022-12-10T10:30:21.630Z,63.97
2022-12-10T10:33:23.294Z,64.04
2022-12-10T10:36:28.053Z,63.74
2022-12-10T10:39:36.495Z,63.80
2022-12-10T10:42:43.152Z,63.62
2022-12-10T10:45:49.534Z,63.71
2022-12-10T10:48:51.739Z,63.51
2022-12-10T10:52:17.201Z,63.98
2022-12-10T10:55:35.960Z,63.82
2022-12-10T10:58:48.398Z,63.82
2022-12-10T11:01:55.691Z,63.83
2022-12-10T11:05:01.054Z,63.89
2022-12-10T11:08:14.993Z,63.59
2022-12-10T11:11:23.708Z,63.64
2022-12-10T11:14:47.127Z,63.79
2022-12-10T11:17:51.540Z,63.60
2022-12-10T11:21:12.623Z,63.91
2022-12-10T11:24:18.809Z,63.83
2022-12-10T11:27:20.271Z,63.70
2022-12-10T11:30:24.623Z,63.65
2022-12-10T11:33:42.439Z,63.74
2022-12-10T11:36:46.717Z,63.58
2022-12-10T11:39:51.082Z,63.71
2022-12-10T11:43:14.596Z,63.61
2022-12-10T11:46:38.116Z,63.60
2022-12-10T11:49:42.511Z,63.66
2022-12-10T11:53:02.243Z,63.69
2022-12-10T11:56:17.290Z,63.69
2022-12-10T12:00:04.184Z,63.82
2022-12-10T12:03:33.131Z,63.63
2022-12-10T12:06:59.442Z,63.45
2022-12-10T12:10:22.734Z,63.74
2022-12-10T12:13:42.375Z,63.60
2022-12-10T12:16:49.988Z,63.70
2022-12-10T12:19:55.841Z,63.64
2022-12-10T12:23:22.538Z,63.67
2022-12-10T12:26:39.821Z,63.60
2022-12-10T12:30:03.182Z,63.43
2022-12-10T12:33:32.293Z,63.46
2022-12-10T12:36:37.712Z,63.65
2022-12-10T12:39:41.986Z,63.44
2022-12-10T12:43:05.378Z,63.45
2022-12-10T12:46:21.936Z,63.54
2022-12-10T12:49:33.491Z,63.48
2022-12-10T12:52:45.929Z,63.51
2022-12-10T12:56:00.096Z,63.31
2022-12-10T12:59:24.139Z,63.52
2022-12-10T13:02:44.622Z,63.33
2022-12-10T13:05:47.536Z,63.51
2022-12-10T13:08:57.976Z,63.22
2022-12-10T13:12:05.677Z,63.40
2022-12-10T13:15:33.323Z,63.28
2022-12-10T13:18:37.737Z,63.42
2022-12-10T13:21:58.252Z,63.25
2022-12-10T13:25:10.716Z,63.21
2022-12-10T13:28:27.409Z,63.25
2022-12-10T13:31:28.957Z,63.32
2022-12-10T13:34:34.011Z,63.20
2022-12-10T13:37:54.148Z,63.15
2022-12-10T13:41:24.775Z,63.33
2022-12-10T13:44:36.171Z,63.09
2022-12-10T13:47:37.643Z,63.28
2022-12-10T13:51:00.463Z,63.18
2022-12-10T13:54:20.303Z,63.18
2022-12-10T13:57:46.458Z,63.09
2022-12-10T14:00:57.848Z,63.18
2022-12-10T14:04:31.719Z,63.07
2022-12-10T14:07:33.619Z,63.14
2022-12-10T14:10:37.767Z,63.10
2022-12-10T14:13:48.568Z,63.26
2022-12-10T14:16:53.811Z,63.04
2022-12-10T14:19:58.064Z,62.94
2022-12-10T14:23:25.306Z,63.20
2022-12-10T14:26:30.232Z,65.31
2022-12-10T14:29:31.835Z,65.35
2022-12-10T14:32:37.623Z,64.94
2022-12-10T14:35:39.307Z,64.91
2022-12-10T14:38:40.893Z,63.90
2022-12-10T14:41:43.259Z,63.62
2022-12-10T14:44:48.163Z,63.45
2022-12-10T14:47:49.828Z,63.40
2022-12-10T14:50:52.027Z,63.34
2022-12-10T14:53:55.972Z,63.28
2022-12-10T14:56:59.674Z,63.19
2022-12-10T15:00:06.275Z,63.19
2022-12-10T15:03:27.080Z,63.62
2022-12-10T15:06:29.166Z,63.45
2022-12-10T15:09:31.733Z,63.33
2022-12-10T15:12:44.425Z,63.38
2022-12-10T15:15:50.450Z,63.15
2022-12-10T15:18:52.003Z,63.42
2022-12-10T15:22:00.139Z,63.23
2022-12-10T15:25:15.575Z,63.34
2022-12-10T15:28:24.699Z,63.33
2022-12-10T15:31:26.235Z,63.23
2022-12-10T15:34:31.061Z,63.33
2022-12-10T15:37:39.489Z,63.15
2022-12-10T15:40:41.038Z,63.16
2022-12-10T15:43:52.833Z,63.17
2022-12-10T15:47:22.256Z,63.25
2022-12-10T15:50:23.931Z,63.19
2022-12-10T15:53:36.821Z,63.06
2022-12-10T15:56:38.362Z,62.99
2022-12-10T15:59:39.952Z,62.91
2022-12-10T16:02:51.251Z,62.98
2022-12-10T16:05:52.848Z,62.86
2022-12-10T16:08:54.399Z,62.88
2022-12-10T16:11:55.964Z,62.73
2022-12-10T16:15:00.820Z,62.76
2022-12-10T16:18:04.013Z,62.83
2022-12-10T16:21:07.189Z,63.03
2022-12-10T16:24:08.731Z,62.56
2022-12-10T16:27:14.490Z,62.94
2022-12-10T16:30:20.666Z,63.00
2022-12-10T16:33:24.432Z,62.80
2022-12-10T16:36:26.044Z,62.81
2022-12-10T16:39:30.871Z,62.79
2022-12-10T16:42:32.684Z,63.02
2022-12-10T16:45:36.787Z,62.59
2022-12-10T16:48:38.578Z,62.90
2022-12-10T16:51:42.435Z,63.01
2022-12-10T16:54:45.361Z,62.88
2022-12-10T16:57:48.161Z,62.76
2022-12-10T17:00:51.549Z,62.87
2022-12-10T17:03:53.137Z,63.03
2022-12-10T17:06:54.843Z,63.06
2022-12-10T17:10:01.580Z,62.97
2022-12-10T17:13:03.540Z,62.91
2022-12-10T17:16:06.036Z,62.79
2022-12-10T17:19:13.238Z,62.67
2022-12-10T17:22:14.768Z,62.74
2022-12-10T17:25:16.350Z,62.86
2022-12-10T17:28:21.126Z,62.81
2022-12-10T17:31:22.680Z,62.65
2022-12-10T17:34:24.779Z,62.62
2022-12-10T17:37:31.535Z,62.98
2022-12-10T17:40:33.908Z,62.73
2022-12-10T17:43:35.571Z,62.92
2022-12-10T17:46:38.278Z,62.89
2022-12-10T17:49:39.811Z,62.79
2022-12-10T17:52:41.350Z,62.75
2022-12-10T17:55:48.676Z,62.75
2022-12-10T17:58:52.125Z,62.72
2022-12-10T18:01:53.738Z,62.64
2022-12-10T18:04:55.283Z,62.16
2022-12-10T18:07:58.350Z,62.43
2022-12-10T18:10:59.944Z,62.54
2022-12-10T18:14:02.298Z,62.56
2022-12-10T18:17:05.363Z,62.52
2022-12-10T18:20:09.185Z,62.56
2022-12-10T18:23:12.344Z,62.58
2022-12-10T18:26:16.530Z,62.57
2022-12-10T18:29:18.258Z,62.59
2022-12-10T18:32:19.798Z,62.68
2022-12-10T18:35:21.542Z,62.52
2022-12-10T18:38:23.126Z,62.63
2022-12-10T18:41:25.661Z,64.64
2022-12-10T18:44:28.981Z,63.68
2022-12-10T18:47:30.537Z,63.02
2022-12-10T18:50:34.340Z,62.91
2022-12-10T18:53:36.676Z,62.58
2022-12-10T18:56:38.779Z,62.94
2022-12-10T18:59:41.320Z,62.56
2022-12-10T19:02:43.788Z,62.39
2022-12-10T19:05:45.440Z,62.47
2022-12-10T19:09:17.227Z,62.70
2022-12-10T19:12:10.962Z,62.66
2022-12-10T19:15:14.944Z,62.57
2022-12-10T19:18:16.568Z,62.70
2022-12-10T19:21:18.399Z,62.79
2022-12-10T19:24:19.938Z,62.62
2022-12-10T19:27:21.479Z,62.62
2022-12-10T19:30:25.621Z,62.79
2022-12-10T19:33:27.197Z,63.03
2022-12-10T19:36:33.384Z,62.74
2022-12-10T19:39:35.775Z,63.00
2022-12-10T19:42:37.320Z,62.86
2022-12-10T19:45:38.845Z,63.05
2022-12-10T19:48:40.529Z,62.67
2022-12-10T19:51:42.646Z,62.98
2022-12-10T19:54:44.530Z,62.98
2022-12-10T19:57:46.141Z,62.71
2022-12-10T20:00:48.668Z,63.11
2022-12-10T20:03:50.216Z,62.95
2022-12-10T20:06:51.820Z,62.72
2022-12-10T20:09:53.399Z,62.76
2022-12-10T20:12:55.447Z,63.09
2022-12-10T20:15:57.307Z,63.16
2022-12-10T20:18:58.944Z,63.03
2022-12-10T20:22:00.495Z,62.93
2022-12-10T20:25:02.086Z,62.86
2022-12-10T20:28:04.278Z,62.67
2022-12-10T20:31:05.958Z,62.59
2022-12-10T20:34:09.719Z,62.88
2022-12-10T20:37:13.322Z,62.95
2022-12-10T20:40:33.696Z,63.00
2022-12-10T20:43:35.541Z,63.04
2022-12-10T20:46:38.143Z,63.15
2022-12-10T20:49:39.777Z,62.70
2022-12-10T20:52:41.374Z,62.95
2022-12-10T20:55:42.976Z,63.07
2022-12-10T20:58:44.764Z,62.68
2022-12-10T21:01:47.085Z,62.92
2022-12-10T21:04:48.771Z,62.84
2022-12-10T21:07:50.544Z,62.56
2022-12-10T21:10:52.185Z,63.04
2022-12-10T21:13:53.879Z,62.96
2022-12-10T21:16:55.488Z,62.80
2022-12-10T21:19:57.020Z,63.31
2022-12-10T21:22:58.568Z,63.02
2022-12-10T21:26:00.484Z,63.07
2022-12-10T21:29:02.854Z,62.83
2022-12-10T21:32:04.557Z,62.91
2022-12-10T21:35:07.145Z,63.03
2022-12-10T21:38:09.144Z,62.93
2022-12-10T21:41:35.807Z,62.91
2022-12-10T21:44:37.333Z,62.99
2022-12-10T21:47:38.966Z,62.97
2022-12-10T21:50:41.075Z,63.04
2022-12-10T21:53:42.677Z,63.06
2022-12-10T21:56:44.196Z,63.16
2022-12-10T21:59:45.762Z,62.92
2022-12-10T22:02:47.457Z,63.00
2022-12-10T22:05:49.019Z,62.96
2022-12-10T22:08:50.621Z,62.67
2022-12-10T22:11:52.180Z,62.80
2022-12-10T22:14:53.709Z,62.68
2022-12-10T22:17:55.259Z,63.00
2022-12-10T22:20:59.892Z,62.93
2022-12-10T22:24:01.490Z,62.68
2022-12-10T22:27:03.216Z,62.71
2022-12-10T22:30:06.356Z,62.42
2022-12-10T22:33:08.689Z,62.93
2022-12-10T22:36:10.309Z,62.70
2022-12-10T22:39:11.872Z,63.11
2022-12-10T22:42:13.547Z,62.73
2022-12-10T22:45:15.141Z,62.81
2022-12-10T22:48:16.685Z,62.85
2022-12-10T22:51:18.389Z,62.85
2022-12-10T22:54:19.922Z,62.96
2022-12-10T22:57:21.526Z,63.15
2022-12-10T23:00:23.362Z,62.95
2022-12-10T23:03:26.087Z,62.98
2022-12-10T23:06:27.635Z,62.66
2022-12-10T23:09:29.237Z,63.07
2022-12-10T23:12:49.815Z,62.96
2022-12-10T23:15:53.083Z,63.24
2022-12-10T23:18:54.673Z,62.80
2022-12-10T23:21:56.584Z,62.92
2022-12-10T23:24:58.145Z,62.65
2022-12-10T23:27:59.680Z,62.78
2022-12-10T23:31:01.246Z,63.15
2022-12-10T23:34:03.089Z,62.84
2022-12-10T23:37:05.016Z,62.82
2022-12-10T23:40:07.402Z,62.64
2022-12-10T23:43:10.418Z,62.61
2022-12-10T23:46:11.992Z,62.75
2022-12-10T23:49:14.627Z,63.06
2022-12-10T23:52:16.923Z,63.31
2022-12-10T23:55:18.580Z,62.63
2022-12-10T23:58:20.510Z,62.90
